Pagrindinis puslapis
METAR-TAF:

METAR-TAF

Oro uostai :

Schleswig-Jagel, Vokietija

platuma: 54-28N, ilguma: 009-31E, Aukštis: 22 m

Dabartinis oras

Ataskaita buvo paskelbta 45 minutes, ne 21:20 UTC
Vėjas 6 kt iš Pietų
Temperatūra 16°C
Drėgmė 82%
Slėgis 1010 hPa

METAR: ETNS 142120Z AUTO 17006KT //// // ////// 16/13 Q1010 ///

Laikas: 00:05 (22:05 UTC)


TAF: trūkstamas

Orai ataskaitas ir orų prognozės (METAR, TAF).

turimą stotys yra geltonos ir raudonos taškus žemėlapyje.

Perkelti pele per norėdami pamatyti stoties vardą.

Tada spustelėkite, norėdami matyti oro stebėjimo ir prognozės.

Norėdami pakeisti žemėlapį: spustelėkite ant žalios mygtukų su juodo kryžiaus žemyn,; žalią mygtuką su brūkšneliu, jei norite nutolinti; arba žalių rodyklių gretimoms žemėlapius.


METAR-TAF: